Time;durP1;ratioP1;P1;durP2;ratioP2;P2;SDS_P1;SDS_P2;PMS_P1;PMS_P2;Temp;Humidity;BMP_temperature;BMP_pressure;BME280_temperature;BME280_humidity;BME280_pressure;Samples;Min_cycle;Max_cycle;Signal;HPM_P1;HPM_P2
2022/07/02 00:01:26;;;;;;;4.90;3.47;;;;;;;18.70;68.90;100494.47;1720163;81;21044;-79
2022/07/02 00:03:56;;;;;;;4.05;3.15;;;;;;;18.72;69.02;100497.80;1710532;83;21501;-78
2022/07/02 00:06:26;;;;;;;6.75;2.80;;;;;;;18.73;69.05;100499.50;1720932;83;21049;-82
2022/07/02 00:08:52;;;;;;;5.45;3.40;;;;;;;18.73;69.28;100501.67;1678244;81;21047;-84
2022/07/02 00:11:19;;;;;;;5.00;3.30;;;;;;;18.73;69.41;100508.36;1700772;81;21720;-82
2022/07/02 00:13:45;;;;;;;6.37;3.62;;;;;;;18.70;69.47;100513.20;1717925;83;21006;-82
2022/07/02 00:16:12;;;;;;;4.67;3.40;;;;;;;18.69;69.57;100513.70;1713181;81;20976;-81
2022/07/02 00:18:38;;;;;;;6.50;3.50;;;;;;;18.67;69.76;100506.86;1707928;81;21182;-84
2022/07/02 00:21:05;;;;;;;4.78;3.27;;;;;;;18.64;69.96;100506.67;1717205;81;20996;-83
2022/07/02 00:23:31;;;;;;;6.42;3.30;;;;;;;18.64;70.15;100512.03;1720109;83;21947;-81
2022/07/02 00:26:04;;;;;;;6.60;3.55;;;;;;;18.62;70.28;100510.00;1711656;81;21091;-91
2022/07/02 00:28:31;;;;;;;7.33;3.52;;;;;;;18.64;70.49;100508.52;1714099;81;20917;-91
2022/07/02 00:30:58;;;;;;;6.00;3.40;;;;;;;18.65;70.61;100509.71;1725575;81;21048;-87
2022/07/02 00:33:25;;;;;;;5.28;3.55;;;;;;;18.66;70.71;100518.06;1721108;82;21021;-86
2022/07/02 00:35:51;;;;;;;4.67;3.10;;;;;;;18.69;70.85;100520.39;1723298;81;21879;-86
2022/07/02 00:38:18;;;;;;;3.80;3.33;;;;;;;18.71;70.93;100510.34;1718318;81;20992;-87
2022/07/02 00:40:44;;;;;;;5.83;3.02;;;;;;;18.79;70.85;100515.68;1718706;81;20996;-89
2022/07/02 00:43:12;;;;;;;5.67;2.87;;;;;;;18.90;70.46;100516.31;1691894;83;20965;-82
2022/07/02 00:45:38;;;;;;;8.03;3.55;;;;;;;19.02;70.03;100513.11;1724591;81;21095;-86
2022/07/02 00:48:05;;;;;;;3.90;2.98;;;;;;;19.12;69.41;100513.74;1722476;81;21923;-85
2022/07/02 00:50:31;;;;;;;3.90;2.55;;;;;;;19.25;68.80;100523.05;1732060;81;20933;-83
2022/07/02 00:52:58;;;;;;;5.05;2.98;;;;;;;19.35;68.33;100523.67;1716626;81;20997;-84
2022/07/02 00:55:24;;;;;;;5.33;2.85;;;;;;;19.44;67.91;100528.81;1716370;81;21032;-83
2022/07/02 00:57:51;;;;;;;6.60;2.87;;;;;;;19.50;67.54;100528.63;1725243;81;21107;-79
2022/07/02 01:00:19;;;;;;;5.22;2.60;;;;;;;19.58;67.29;100532.61;1690769;83;22419;-81
2022/07/02 01:02:46;;;;;;;3.70;2.35;;;;;;;19.64;66.96;100533.25;1710839;82;21013;-81
2022/07/02 01:05:19;;;;;;;8.95;2.52;;;;;;;19.71;66.33;100534.73;1709727;84;20965;-80
2022/07/02 01:10:44;;;;;;;4.75;2.30;;;;;;;19.87;65.12;100537.28;1716401;83;21071;-81
2022/07/02 01:13:12;;;;;;;5.67;2.50;;;;;;;19.93;64.13;100537.92;1712518;83;21997;-80
2022/07/02 01:15:39;;;;;;;4.30;2.30;;;;;;;20.01;63.55;100543.73;1697173;84;21478;-80
2022/07/02 01:18:06;;;;;;;6.42;2.40;;;;;;;20.06;63.04;100535.97;1695642;83;21024;-80
2022/07/02 01:20:33;;;;;;;4.70;2.40;;;;;;;20.11;62.59;100546.17;1693932;84;21007;-82
2022/07/02 01:23:00;;;;;;;5.33;2.30;;;;;;;20.13;62.08;100547.66;1697911;84;21075;-82
2022/07/02 01:25:26;;;;;;;6.60;2.45;;;;;;;20.17;61.65;100549.46;1698206;84;22303;-80
2022/07/02 01:27:53;;;;;;;3.47;2.15;;;;;;;20.21;61.11;100554.81;1707399;83;21326;-80
2022/07/02 01:30:20;;;;;;;4.08;2.30;;;;;;;20.24;60.59;100551.77;1712756;82;21013;-79
2022/07/02 01:32:47;;;;;;;6.00;1.95;;;;;;;20.27;60.07;100559.47;1697984;84;21086;-77
2022/07/02 01:35:13;;;;;;;4.30;2.20;;;;;;;20.30;59.63;100559.09;1704173;83;21455;-78
2022/07/02 01:37:40;;;;;;;9.18;2.30;;;;;;;20.33;59.28;100566.77;1726315;82;21771;-80
2022/07/02 01:40:08;;;;;;;4.22;2.40;;;;;;;20.35;58.86;100574.12;1717738;82;20985;-78
2022/07/02 01:42:36;;;;;;;4.95;2.17;;;;;;;20.37;58.47;100574.81;1697875;84;20975;-78
2022/07/02 01:45:04;;;;;;;6.05;2.12;;;;;;;20.39;58.38;100575.45;1696455;83;21517;-78
2022/07/02 01:47:31;;;;;;;4.00;2.10;;;;;;;20.42;58.28;100576.42;1698877;83;20945;-79
2022/07/02 01:49:59;;;;;;;5.00;2.10;;;;;;;20.44;58.13;100577.61;1697704;84;21720;-78
2022/07/02 01:52:30;;;;;;;3.22;2.00;;;;;;;20.44;58.09;100579.79;1692413;83;21463;-79
2022/07/02 01:54:56;;;;;;;5.75;2.20;;;;;;;20.44;58.10;100582.47;1696855;83;21065;-79
2022/07/02 01:57:23;;;;;;;7.17;2.30;;;;;;;20.45;58.03;100592.69;1692773;84;20964;-79
2022/07/02 01:59:49;;;;;;;6.67;2.17;;;;;;;20.44;57.83;100587.84;1689721;84;21013;-80
2022/07/02 02:02:16;;;;;;;5.55;2.20;;;;;;;20.43;57.90;100594.22;1688230;83;21927;-80
2022/07/02 02:04:43;;;;;;;7.67;2.33;;;;;;;20.44;57.83;100589.17;1696041;84;20972;-80
2022/07/02 02:07:11;;;;;;;5.17;2.20;;;;;;;20.44;57.77;100590.52;1715585;83;20969;-79
2022/07/02 02:09:38;;;;;;;6.37;2.20;;;;;;;20.45;57.89;100589.50;1690422;83;21056;-79
2022/07/02 02:12:06;;;;;;;5.53;2.00;;;;;;;20.44;57.98;100593.20;1702496;81;21071;-80
2022/07/02 02:14:32;;;;;;;3.90;2.12;;;;;;;20.43;58.08;100602.27;1708799;84;22469;-81
2022/07/02 02:16:59;;;;;;;5.85;2.20;;;;;;;20.43;58.06;100603.61;1745862;80;21336;-80
2022/07/02 02:19:25;;;;;;;3.80;2.00;;;;;;;20.42;58.09;100607.28;1756206;81;20964;-76
2022/07/02 02:21:52;;;;;;;5.37;2.00;;;;;;;20.41;58.14;100608.30;1718843;81;20978;-79
2022/07/02 02:24:18;;;;;;;5.70;2.20;;;;;;;20.42;58.11;100610.47;1694476;82;20981;-79
2022/07/02 02:26:46;;;;;;;9.93;2.47;;;;;;;20.44;58.08;100609.30;1694509;82;22514;-77
2022/07/02 02:29:13;;;;;;;2.70;1.77;;;;;;;20.45;58.04;100614.99;1716216;83;20961;-77
2022/07/02 02:31:39;;;;;;;6.92;2.20;;;;;;;20.44;58.06;100616.01;1747005;80;21029;-86
2022/07/02 02:34:06;;;;;;;5.10;2.10;;;;;;;20.45;58.20;100619.02;1748579;82;21000;-78
2022/07/02 02:36:32;;;;;;;8.60;2.10;;;;;;;20.45;58.28;100626.23;1760211;80;20965;-79
2022/07/02 02:38:59;;;;;;;5.45;2.05;;;;;;;20.45;58.35;100628.91;1744052;82;21838;-76
2022/07/02 02:41:25;;;;;;;7.65;2.15;;;;;;;20.43;58.23;100621.05;1749382;82;21048;-79
2022/07/02 02:43:52;;;;;;;7.17;2.40;;;;;;;20.42;57.67;100618.02;1768615;80;20965;-80
2022/07/02 02:46:19;;;;;;;5.80;2.33;;;;;;;20.44;56.95;100628.59;1769682;80;21170;-79
2022/07/02 02:48:46;;;;;;;7.12;2.30;;;;;;;20.46;56.48;100622.53;1754350;80;20996;-82
2022/07/02 02:51:15;;;;;;;10.55;2.12;;;;;;;20.49;55.71;100628.39;1749174;81;21916;-83
2022/07/02 02:53:42;;;;;;;9.05;2.35;;;;;;;20.50;55.14;100634.08;1749611;82;21420;-75
2022/07/02 02:56:09;;;;;;;5.65;2.02;;;;;;;20.53;55.09;100629.69;1756331;80;20948;-76
2022/07/02 02:58:37;;;;;;;7.97;2.22;;;;;;;20.56;55.09;100636.56;1789128;80;20988;-75
2022/07/02 03:01:04;;;;;;;6.30;2.00;;;;;;;20.58;55.15;100639.90;1765294;80;20953;-79
2022/07/02 03:03:32;;;;;;;6.87;2.20;;;;;;;20.61;55.04;100640.03;1749813;82;21851;-81
2022/07/02 03:05:59;;;;;;;10.72;2.37;;;;;;;20.64;55.20;100643.69;1749319;80;20973;-80
2022/07/02 03:08:25;;;;;;;17.57;2.30;;;;;;;20.65;55.28;100646.70;1747254;82;20992;-83
2022/07/02 03:10:52;;;;;;;10.55;2.25;;;;;;;20.66;55.20;100644.37;1749472;80;21001;-84
2022/07/02 03:13:19;;;;;;;8.78;2.20;;;;;;;20.69;55.22;100650.70;1759530;80;20973;-82
2022/07/02 03:15:46;;;;;;;6.90;2.22;;;;;;;20.70;55.13;100649.69;1774469;79;22832;-81
2022/07/02 03:18:12;;;;;;;4.60;2.25;;;;;;;20.72;55.19;100654.36;1763369;79;21408;-81
2022/07/02 03:20:38;;;;;;;6.20;2.40;;;;;;;20.74;55.30;100655.01;1766143;80;21504;-79
2022/07/02 03:23:05;;;;;;;10.10;2.67;;;;;;;20.77;55.39;100651.98;1758500;79;21045;-79
2022/07/02 03:25:32;;;;;;;7.03;2.25;;;;;;;20.80;55.32;100656.98;1758103;81;20979;-82
2022/07/02 03:27:59;;;;;;;4.05;2.05;;;;;;;20.81;55.24;100661.33;1790353;79;22506;-82
2022/07/02 03:30:26;;;;;;;4.85;1.87;;;;;;;20.82;55.03;100654.44;1763554;80;21480;-80
2022/07/02 03:32:52;;;;;;;6.47;2.45;;;;;;;20.85;54.99;100658.13;1765551;80;20965;-82
2022/07/02 03:35:20;;;;;;;8.45;2.30;;;;;;;20.87;54.78;100655.25;1763284;79;20969;-80
2022/07/02 03:37:46;;;;;;;5.37;2.20;;;;;;;20.89;54.55;100655.89;1769278;79;21099;-81
2022/07/02 03:40:13;;;;;;;7.42;2.33;;;;;;;20.90;54.43;100662.93;1782922;80;21871;-80
2022/07/02 03:42:40;;;;;;;5.85;2.12;;;;;;;20.92;54.25;100662.23;1765475;79;21063;-80
2022/07/02 03:45:07;;;;;;;9.98;2.15;;;;;;;20.94;54.03;100664.25;1759301;81;21016;-80
2022/07/02 03:47:34;;;;;;;4.22;2.12;;;;;;;20.96;53.89;100668.09;1765223;80;21439;-81
2022/07/02 03:50:01;;;;;;;9.35;2.22;;;;;;;20.98;53.96;100669.58;1763731;81;21008;-81
2022/07/02 03:52:27;;;;;;;5.47;1.90;;;;;;;21.01;53.94;100668.36;1763761;79;21876;-81
2022/07/02 03:54:54;;;;;;;8.03;2.00;;;;;;;21.04;53.97;100665.34;1760651;79;21015;-81
2022/07/02 03:57:20;;;;;;;4.55;2.08;;;;;;;21.05;53.61;100663.80;1763522;80;20952;-79
2022/07/02 03:59:47;;;;;;;7.00;2.10;;;;;;;21.07;53.85;100658.25;1763683;81;21927;-79
2022/07/02 04:02:13;;;;;;;7.87;1.95;;;;;;;21.09;53.96;100660.23;1763532;79;20942;-77
2022/07/02 04:04:40;;;;;;;5.35;2.00;;;;;;;21.11;54.00;100671.11;1763234;80;21895;-77
2022/07/02 04:07:06;;;;;;;4.30;2.00;;;;;;;21.13;54.01;100667.76;1762239;80;20988;-77
2022/07/02 04:12:12;;;;;;;7.22;2.08;;;;;;;21.18;54.26;100676.59;1761731;79;21071;-77
2022/07/02 04:14:38;;;;;;;4.85;2.17;;;;;;;21.22;54.40;100674.36;1750868;80;21593;-77
2022/07/02 04:17:05;;;;;;;5.45;1.92;;;;;;;21.26;54.53;100684.61;1762274;81;21832;-76
2022/07/02 04:19:32;;;;;;;5.62;2.35;;;;;;;21.30;54.56;100676.49;1758022;80;21001;-77
2022/07/02 04:22:01;;;;;;;4.42;2.12;;;;;;;21.33;54.49;100684.72;1748983;80;20986;-77
2022/07/02 04:24:31;;;;;;;6.12;2.40;;;;;;;21.35;54.46;100679.98;1748838;80;20964;-77
2022/07/02 04:26:58;;;;;;;5.17;1.92;;;;;;;21.36;54.37;100681.66;1772127;80;21040;-76
2022/07/02 04:29:24;;;;;;;9.68;2.30;;;;;;;21.38;54.18;100681.78;1751695;80;21752;-76
2022/07/02 04:31:51;;;;;;;5.37;1.95;;;;;;;21.40;54.14;100686.97;1754437;80;20986;-77
2022/07/02 04:34:18;;;;;;;6.17;2.10;;;;;;;21.40;53.86;100690.48;1749430;80;21119;-81
2022/07/02 04:36:44;;;;;;;6.00;2.20;;;;;;;21.41;53.74;100692.16;1757577;80;21101;-82
2022/07/02 04:39:11;;;;;;;9.95;2.10;;;;;;;21.46;53.46;100691.61;1748680;81;20944;-83
2022/07/02 04:41:37;;;;;;;7.00;2.10;;;;;;;21.49;52.84;100697.95;1762485;81;21870;-82
2022/07/02 04:44:04;;;;;;;6.03;1.90;;;;;;;21.49;52.48;100697.13;1743079;80;20954;-83
2022/07/02 04:46:31;;;;;;;4.00;1.90;;;;;;;21.50;52.64;100694.25;1746357;80;21095;-84
2022/07/02 04:49:11;;;;;;;5.53;2.12;;;;;;;21.55;52.42;100701.26;1746797;80;21419;-82
2022/07/02 04:51:38;;;;;;;7.60;2.02;;;;;;;21.58;52.31;100702.22;1742713;80;20971;-80
2022/07/02 04:54:04;;;;;;;5.67;2.30;;;;;;;21.63;52.42;100705.20;1760068;80;21856;-79
2022/07/02 04:56:31;;;;;;;6.97;2.20;;;;;;;21.67;52.71;100704.31;1744426;80;20961;-78
2022/07/02 04:58:57;;;;;;;3.75;2.30;;;;;;;21.69;53.00;100709.81;1756855;80;21008;-79
2022/07/02 05:01:25;;;;;;;9.05;2.20;;;;;;;21.73;53.18;100718.87;1752229;80;21005;-80
2022/07/02 05:03:54;;;;;;;6.50;2.12;;;;;;;21.76;53.17;100719.33;1750744;80;21078;-80
2022/07/02 05:06:21;;;;;;;9.43;2.52;;;;;;;21.76;53.04;100724.70;1748550;81;21900;-88
2022/07/02 05:08:51;;;;;;;7.72;2.08;;;;;;;21.75;52.75;100726.23;1752292;80;21559;-81
2022/07/02 05:11:19;;;;;;;6.72;2.08;;;;;;;21.71;52.72;100739.20;1715965;82;21007;-82
2022/07/02 05:13:47;;;;;;;5.08;2.20;;;;;;;21.67;51.82;100744.63;1724398;82;20969;-80
2022/07/02 05:16:13;;;;;;;8.23;2.10;;;;;;;21.63;52.21;100750.06;1718066;82;20943;-83
2022/07/02 05:18:39;;;;;;;7.80;2.05;;;;;;;21.64;52.35;100751.73;1723307;83;21940;-84
2022/07/02 05:21:06;;;;;;;7.37;2.10;;;;;;;21.69;52.22;100747.97;1692932;83;21023;-80
2022/07/02 05:23:32;;;;;;;8.70;1.70;;;;;;;21.74;52.35;100750.12;1708419;82;21013;-82
2022/07/02 05:25:59;;;;;;;10.13;1.95;;;;;;;21.81;52.08;100746.98;1695074;83;20964;-80
2022/07/02 05:28:27;;;;;;;4.92;1.75;;;;;;;21.86;51.99;100745.94;1693755;83;21077;-82
2022/07/02 05:30:54;;;;;;;6.90;1.90;;;;;;;21.90;51.77;100742.67;1688297;83;21921;-79
2022/07/02 05:33:20;;;;;;;8.30;2.12;;;;;;;21.96;51.45;100739.76;1697738;83;20996;-78
2022/07/02 05:35:46;;;;;;;5.75;2.05;;;;;;;21.99;50.78;100737.52;1689257;84;21024;-80
2022/07/02 05:38:13;;;;;;;3.80;1.80;;;;;;;21.95;50.67;100738.09;1690529;83;20953;-79
2022/07/02 05:40:40;;;;;;;7.45;1.80;;;;;;;21.92;50.84;100744.69;1690212;85;20961;-77
2022/07/02 05:43:06;;;;;;;3.65;1.82;;;;;;;21.95;51.08;100744.30;1694720;83;21808;-81
2022/07/02 05:45:33;;;;;;;3.98;1.82;;;;;;;21.96;50.39;100754.55;1698414;82;21084;-80
2022/07/02 05:48:00;;;;;;;7.97;1.82;;;;;;;21.95;50.04;100756.41;1683652;83;21051;-79
2022/07/02 05:50:26;;;;;;;8.10;1.85;;;;;;;21.96;50.29;100759.93;1688127;83;21053;-81
2022/07/02 05:52:53;;;;;;;6.17;1.77;;;;;;;21.95;50.25;100753.72;1687379;85;21110;-81
2022/07/02 05:55:19;;;;;;;8.93;1.90;;;;;;;21.96;50.43;100754.55;1688593;83;21986;-80
2022/07/02 05:57:47;;;;;;;8.55;2.30;;;;;;;22.00;50.54;100757.17;1685591;83;21024;-77
2022/07/02 06:00:14;;;;;;;4.05;1.70;;;;;;;22.05;50.30;100759.33;1674095;85;21020;-79
2022/07/02 06:02:40;;;;;;;4.42;1.95;;;;;;;22.05;49.89;100759.33;1657320;86;21010;-78
2022/07/02 06:07:53;;;;;;;6.03;1.90;;;;;;;21.98;50.54;100758.72;1707220;83;21984;-79
2022/07/02 06:10:20;;;;;;;4.83;1.75;;;;;;;22.07;50.74;100764.86;1724325;83;20965;-78
2022/07/02 06:12:49;;;;;;;4.72;1.62;;;;;;;22.17;49.90;100772.64;1711992;83;20998;-79
2022/07/02 06:15:17;;;;;;;7.72;1.90;;;;;;;22.25;49.34;100772.03;1720273;81;21029;-77
2022/07/02 06:17:44;;;;;;;9.33;1.98;;;;;;;22.27;48.98;100767.29;1732578;81;20964;-78
2022/07/02 06:20:12;;;;;;;4.35;2.00;;;;;;;22.25;48.66;100769.34;1724470;83;21492;-77
2022/07/02 06:22:40;;;;;;;7.58;1.70;;;;;;;22.24;48.85;100765.50;1723271;82;21388;-77
2022/07/02 06:25:08;;;;;;;13.55;2.08;;;;;;;22.23;48.77;100775.43;1725448;81;21040;-76
2022/07/02 06:27:35;;;;;;;6.75;1.87;;;;;;;22.17;48.49;100773.48;1710946;82;21059;-78
2022/07/02 06:30:03;;;;;;;6.53;1.80;;;;;;;22.15;48.63;100772.00;1705972;84;20951;-76
2022/07/02 06:32:30;;;;;;;7.00;2.00;;;;;;;22.16;48.30;100774.50;1705880;84;21912;-76
2022/07/02 06:34:57;;;;;;;7.00;1.70;;;;;;;22.23;48.33;100783.50;1713885;82;20992;-77
2022/07/02 06:37:24;;;;;;;8.70;1.72;;;;;;;22.30;48.16;100787.62;1706430;83;20975;-76
2022/07/02 06:39:51;;;;;;;8.63;1.82;;;;;;;22.34;46.84;100780.84;1712694;83;20976;-76
2022/07/02 06:42:22;;;;;;;5.33;1.70;;;;;;;22.35;47.13;100781.67;1716696;82;21471;-76
2022/07/02 06:44:51;;;;;;;6.37;1.67;;;;;;;22.44;47.36;100792.65;1717275;82;21861;-76
2022/07/02 06:47:18;;;;;;;5.47;1.72;;;;;;;22.54;47.14;100789.14;1741816;82;21044;-76
2022/07/02 06:49:45;;;;;;;7.33;1.70;;;;;;;22.60;46.75;100795.12;1742052;82;20948;-77
2022/07/02 06:52:13;;;;;;;4.03;1.70;;;;;;;22.61;46.11;100790.57;1730965;82;21477;-76
2022/07/02 06:54:40;;;;;;;6.60;1.72;;;;;;;22.65;46.79;100795.38;1713494;82;21362;-76
2022/07/02 06:57:06;;;;;;;4.40;1.77;;;;;;;22.67;45.47;100799.22;1714812;82;21788;-75
2022/07/02 06:59:33;;;;;;;7.83;1.98;;;;;;;22.67;45.19;100802.73;1720890;82;21083;-76
2022/07/02 07:02:00;;;;;;;2.20;1.60;;;;;;;22.72;45.37;100813.79;1716235;82;21069;-76
2022/07/02 07:04:29;;;;;;;8.60;1.60;;;;;;;22.82;45.23;100817.52;1706386;82;21090;-77
2022/07/02 07:06:57;;;;;;;6.58;3.83;;;;;;;22.83;44.55;100812.45;1704616;83;21091;-87
2022/07/02 07:09:24;;;;;;;5.22;1.62;;;;;;;22.74;43.32;100805.00;1713893;82;21952;-83
2022/07/02 07:11:50;;;;;;;9.70;3.70;;;;;;;22.67;42.43;100807.30;1705865;83;21066;-83
2022/07/02 07:14:18;;;;;;;5.20;1.80;;;;;;;22.60;44.21;100808.59;1690732;83;21461;-82
2022/07/02 07:16:44;;;;;;;5.30;1.37;;;;;;;22.65;43.34;100812.87;1748785;81;20944;-82
2022/07/02 07:19:11;;;;;;;2.65;1.40;;;;;;;22.70;42.24;100812.32;1718413;81;21112;-82
2022/07/02 07:21:40;;;;;;;10.08;1.60;;;;;;;22.78;43.16;100807.66;1726878;83;22252;-81
2022/07/02 07:24:07;;;;;;;3.87;1.62;;;;;;;22.95;42.85;100814.16;1717002;81;21056;-82
2022/07/02 07:26:33;;;;;;;5.85;1.37;;;;;;;23.04;40.42;100814.35;1725203;81;21028;-79
2022/07/02 07:29:03;;;;;;;7.58;1.45;;;;;;;23.05;41.05;100815.50;1713515;81;21004;-80
2022/07/02 07:31:30;;;;;;;3.10;1.30;;;;;;;23.06;40.48;100821.20;1716162;81;20966;-80
2022/07/02 07:33:57;;;;;;;5.70;1.27;;;;;;;23.15;40.49;100823.27;1713787;81;22792;-81
2022/07/02 07:36:26;;;;;;;6.47;1.50;;;;;;;23.25;40.26;100825.62;1748597;80;21426;-79
2022/07/02 07:38:53;;;;;;;3.45;1.30;;;;;;;23.29;39.37;100827.77;1755546;79;21080;-78
2022/07/02 07:41:20;;;;;;;5.65;1.40;;;;;;;23.32;39.56;100827.36;1755768;80;21115;-80
2022/07/02 07:43:48;;;;;;;8.03;1.32;;;;;;;23.32;40.05;100830.58;1746079;80;20881;-75
2022/07/02 07:46:15;;;;;;;8.38;1.60;;;;;;;23.38;40.74;100835.20;1706365;83;22577;-75
2022/07/02 07:48:41;;;;;;;2.45;1.30;;;;;;;23.45;39.26;100831.20;1714231;81;20997;-76
2022/07/02 07:51:08;;;;;;;4.87;1.30;;;;;;;23.48;37.25;100822.73;1774072;80;20997;-74
2022/07/02 07:53:34;;;;;;;6.20;1.70;;;;;;;23.48;37.25;100825.44;1747175;80;21311;-73
2022/07/02 07:56:00;;;;;;;4.85;1.80;;;;;;;23.53;38.09;100825.16;1714425;81;20950;-77
2022/07/02 07:58:27;;;;;;;4.95;1.47;;;;;;;23.57;38.24;100828.31;1744345;82;22202;-76
2022/07/02 08:00:54;;;;;;;3.52;1.35;;;;;;;23.60;39.10;100830.12;1737574;81;21503;-74
2022/07/02 08:03:21;;;;;;;6.55;1.60;;;;;;;23.68;38.24;100828.62;1716330;83;20966;-80
2022/07/02 08:05:47;;;;;;;4.37;1.57;;;;;;;23.72;38.30;100826.36;1686486;85;21408;-75
2022/07/02 08:08:14;;;;;;;5.78;1.57;;;;;;;23.72;38.09;100823.66;1726386;81;21032;-73
2022/07/02 08:10:41;;;;;;;3.20;1.30;;;;;;;23.70;37.46;100821.69;1724202;81;22539;-76
2022/07/02 08:13:07;;;;;;;2.45;1.50;;;;;;;23.66;38.15;100828.00;1688489;83;21596;-82
2022/07/02 08:15:34;;;;;;;5.75;4.05;;;;;;;23.72;38.04;100823.66;1710530;82;21524;-75
2022/07/02 08:18:01;;;;;;;6.50;1.70;;;;;;;23.83;38.49;100832.55;1719391;83;21115;-79
2022/07/02 08:20:27;;;;;;;5.62;2.45;;;;;;;23.90;36.72;100832.09;1715199;83;21314;-78
2022/07/02 08:22:54;;;;;;;8.78;1.50;;;;;;;23.98;37.86;100831.94;1714565;82;21915;-73
2022/07/02 08:25:21;;;;;;;2.02;1.20;;;;;;;24.10;37.64;100836.26;1736119;81;21068;-74
2022/07/02 08:27:47;;;;;;;6.78;1.50;;;;;;;24.19;36.62;100832.36;1722171;81;21000;-79
2022/07/02 08:30:14;;;;;;;8.03;1.70;;;;;;;24.27;37.68;100847.05;1746386;80;21516;-73
2022/07/02 08:32:40;;;;;;;6.35;1.55;;;;;;;24.28;37.32;100843.83;1770204;80;20932;-76
2022/07/02 08:35:08;;;;;;;6.22;1.37;;;;;;;24.30;37.81;100843.11;1750945;80;22276;-84
2022/07/02 08:37:35;;;;;;;7.40;2.00;;;;;;;24.40;38.20;100844.95;1748725;82;21041;-74
2022/07/02 08:40:02;;;;;;;7.58;1.65;;;;;;;24.55;37.96;100841.60;1751647;80;21008;-75
2022/07/02 08:42:32;;;;;;;5.83;1.60;;;;;;;24.65;37.13;100841.75;1749576;82;20992;-79
2022/07/02 08:45:01;;;;;;;3.58;1.32;;;;;;;24.53;36.23;100840.98;1761509;80;21556;-73
2022/07/02 08:47:30;;;;;;;3.45;1.60;;;;;;;24.39;37.25;100842.46;1750618;80;21911;-76
2022/07/02 08:49:58;;;;;;;6.30;1.50;;;;;;;24.40;37.13;100839.55;1741635;80;21114;-78
2022/07/02 08:52:26;;;;;;;4.67;1.40;;;;;;;24.46;37.32;100833.87;1737978;82;21559;-81
2022/07/02 08:54:53;;;;;;;5.12;1.60;;;;;;;24.53;37.83;100834.23;1742540;81;21083;-80
2022/07/02 08:57:20;;;;;;;5.80;1.62;;;;;;;24.62;37.49;100827.30;1738706;80;21052;-80
2022/07/02 08:59:47;;;;;;;4.80;1.50;;;;;;;24.74;37.56;100831.08;1723189;81;21934;-79
2022/07/02 09:02:15;;;;;;;4.90;1.70;;;;;;;24.86;38.04;100830.78;1743328;81;21002;-81
2022/07/02 09:04:48;;;;;;;8.33;1.47;;;;;;;25.00;38.03;100829.80;1727502;82;20968;-82
2022/07/02 09:07:17;;;;;;;2.65;1.47;;;;;;;25.15;37.73;100826.92;1728411;81;29207;-81
2022/07/02 09:09:45;;;;;;;5.55;1.35;;;;;;;25.29;37.39;100829.14;1743032;81;21545;-78
2022/07/02 09:12:13;;;;;;;3.05;1.30;;;;;;;25.39;35.87;100832.26;1703393;82;21800;-80
2022/07/02 09:14:41;;;;;;;8.98;1.62;;;;;;;25.44;35.56;100829.75;1736547;80;21570;-80
2022/07/02 09:17:10;;;;;;;2.22;1.45;;;;;;;25.48;35.94;100830.15;1710597;82;21016;-79
2022/07/02 09:19:37;;;;;;;3.92;2.05;;;;;;;25.52;35.49;100827.36;1718376;82;21055;-79
2022/07/02 09:22:05;;;;;;;5.25;1.30;;;;;;;25.52;34.62;100833.60;1734491;82;21019;-78
2022/07/02 09:24:35;;;;;;;4.40;1.42;;;;;;;25.49;35.53;100827.78;1738032;82;21893;-78
2022/07/02 09:27:15;;;;;;;6.90;1.60;;;;;;;25.50;36.09;100830.80;1728003;82;21333;-81
2022/07/02 09:29:55;;;;;;;3.98;1.37;;;;;;;25.64;36.06;100831.09;1736327;80;21531;-79
2022/07/02 09:32:22;;;;;;;5.78;1.32;;;;;;;25.73;35.63;100833.09;1723103;80;21067;-82
2022/07/02 09:34:51;;;;;;;4.35;1.15;;;;;;;25.78;35.62;100830.61;1726598;81;20945;-82
2022/07/02 09:37:21;;;;;;;5.35;1.80;;;;;;;25.80;34.04;100827.16;1735862;82;21874;-82
2022/07/02 09:39:49;;;;;;;4.92;1.30;;;;;;;25.86;35.89;100826.30;1730876;80;21000;-79
2022/07/02 09:42:31;;;;;;;2.27;1.40;;;;;;;26.01;35.28;100822.84;1722229;82;21099;-79
2022/07/02 09:44:59;;;;;;;3.15;1.50;;;;;;;26.20;35.12;100823.83;1730978;82;21374;-78
2022/07/02 09:47:41;;;;;;;4.40;1.50;;;;;;;26.36;33.63;100817.95;1744322;80;21035;-80
2022/07/02 09:50:11;;;;;;;8.13;1.82;;;;;;;26.35;34.92;100819.52;1717452;82;22626;-82
2022/07/02 09:52:49;;;;;;;3.70;1.50;;;;;;;26.45;35.38;100816.70;1723811;80;21459;-81
2022/07/02 09:55:22;;;;;;;5.15;1.55;;;;;;;26.61;34.29;100819.41;1735676;82;21045;-82
2022/07/02 09:57:55;;;;;;;6.20;1.40;;;;;;;26.77;34.67;100816.20;1744186;82;21007;-82
2022/07/02 10:00:23;;;;;;;7.97;1.40;;;;;;;26.92;33.75;100809.12;1733044;80;21008;-81
2022/07/02 10:02:54;;;;;;;2.67;1.45;;;;;;;27.03;34.37;100808.47;1744089;80;21909;-82
2022/07/02 10:05:31;;;;;;;9.43;1.40;;;;;;;27.23;34.69;100811.56;1743334;80;20992;-78
2022/07/02 10:08:03;;;;;;;5.30;1.70;;;;;;;27.44;32.63;100808.98;1745491;80;21102;-79
2022/07/02 10:10:40;;;;;;;7.30;1.47;;;;;;;27.52;32.73;100802.75;1738072;80;21017;-77
2022/07/02 10:13:08;;;;;;;4.60;1.47;;;;;;;27.67;33.35;100810.56;1743338;82;21048;-77
2022/07/02 10:15:39;;;;;;;5.62;1.70;;;;;;;27.84;32.51;100808.11;1722597;82;21850;-79
2022/07/02 10:18:05;;;;;;;6.60;1.52;;;;;;;27.91;32.17;100806.16;1719680;82;21157;-82
2022/07/02 10:20:33;;;;;;;8.20;2.08;;;;;;;28.01;32.10;100807.00;1688447;83;21115;-82
2022/07/02 10:23:04;;;;;;;127.40;38.05;;;;;;;28.09;31.35;100810.77;1732561;81;20964;-81
2022/07/02 10:25:33;;;;;;;7.53;2.75;;;;;;;28.20;30.88;100808.66;1691025;83;21443;-82
2022/07/02 10:28:00;;;;;;;7.10;1.70;;;;;;;28.20;29.67;100802.69;1689345;85;21843;-82
2022/07/02 10:30:32;;;;;;;2.42;1.40;;;;;;;28.20;30.86;100802.69;1689583;84;21506;-82
2022/07/02 10:33:24;;;;;;;5.80;1.90;;;;;;;28.32;29.72;100801.42;1687894;84;21451;-82
2022/07/02 10:35:50;;;;;;;;;;;;;;;28.41;30.43;100809.56;1669112;85;21012;-83
2022/07/02 10:38:37;;;;;;;5.70;1.45;;;;;;;28.56;30.06;100809.14;1667383;85;20145;-82
2022/07/02 10:41:03;;;;;;;10.60;3.02;;;;;;;28.68;30.24;100811.94;1683476;84;21924;-84
2022/07/02 10:43:33;;;;;;;87.72;25.70;;;;;;;28.86;30.20;100813.25;1674041;85;20949;-83
2022/07/02 10:46:07;;;;;;;201.18;58.20;;;;;;;29.06;29.54;100809.73;1670883;85;21012;-81
2022/07/02 10:48:50;;;;;;;42.65;11.30;;;;;;;29.19;28.47;100798.33;1672731;85;20982;-79
2022/07/02 10:51:23;;;;;;;;;;;;;;;29.19;28.47;100798.33;1644226;86;21066;-80
2022/07/02 10:53:50;;;;;;;3.85;1.80;;;;;;;29.30;28.36;100798.88;1715237;83;21685;-80
2022/07/02 10:56:17;;;;;;;7.67;1.50;;;;;;;29.42;28.54;100806.51;1732069;81;21008;-83
2022/07/02 10:58:43;;;;;;;4.45;1.35;;;;;;;29.52;28.12;100803.23;1744561;81;20960;-85
2022/07/02 11:01:21;;;;;;;3.92;1.30;;;;;;;29.69;28.72;100804.72;1696687;83;20978;-82
2022/07/02 11:04:01;;;;;;;3.20;1.20;;;;;;;29.90;28.11;100807.66;1661796;86;21072;-79
2022/07/02 11:06:30;;;;;;;8.00;1.60;;;;;;;30.07;27.42;100800.16;1689133;83;22459;-77
2022/07/02 11:09:00;;;;;;;3.47;1.37;;;;;;;30.15;27.87;100795.70;1697174;83;21052;-79
2022/07/02 11:11:39;;;;;;;8.63;1.30;;;;;;;30.24;27.53;100788.80;1699404;83;21050;-85
2022/07/02 11:14:10;;;;;;;2.92;1.35;;;;;;;30.27;27.00;100792.93;1651170;86;21121;-82
2022/07/02 11:16:41;;;;;;;6.05;1.17;;;;;;;30.29;27.85;100798.96;1704090;83;21081;-84
2022/07/02 11:19:19;;;;;;;7.58;1.45;;;;;;;30.41;26.64;100793.78;1697217;84;21950;-81
2022/07/02 11:21:47;;;;;;;2.72;1.32;;;;;;;30.34;27.24;100797.72;1684357;84;21047;-83
2022/07/02 11:24:21;;;;;;;6.90;1.45;;;;;;;30.22;27.65;100800.48;1687325;84;21554;-83
2022/07/02 11:26:48;;;;;;;7.10;1.10;;;;;;;30.27;28.03;100801.11;1660825;85;21075;-84
2022/07/02 11:29:15;;;;;;;6.65;1.50;;;;;;;30.35;26.14;100799.37;1689479;85;21134;-83
2022/07/02 11:31:46;;;;;;;1.47;1.20;;;;;;;30.28;27.20;100804.13;1688470;83;21903;-84
2022/07/02 11:34:18;;;;;;;3.92;1.10;;;;;;;30.43;27.52;100798.45;1689336;85;21004;-82
2022/07/02 11:36:45;;;;;;;9.05;2.55;;;;;;;30.53;27.21;100798.36;1674064;84;21126;-82